Time;durP1;ratioP1;P1;durP2;ratioP2;P2;SDS_P1;SDS_P2;PMS_P1;PMS_P2;Temp;Humidity;BMP_temperature;BMP_pressure;BME280_temperature;BME280_humidity;BME280_pressure;Samples;Min_cycle;Max_cycle;Signal;HPM_P1;HPM_P2
2022/09/28 00:00:54;;;;;;;6.75;5.82;;;9.00;99.90;;;;;;5056586;28;20025;-90
2022/09/28 00:03:19;;;;;;;7.80;5.50;;;9.00;99.90;;;;;;5055126;28;20024;-89
2022/09/28 00:05:45;;;;;;;8.20;6.30;;;9.00;99.90;;;;;;5071959;28;20025;-88
2022/09/28 00:08:11;;;;;;;9.15;6.45;;;9.00;99.90;;;;;;5054974;28;20013;-89
2022/09/28 00:10:36;;;;;;;7.10;5.68;;;8.90;99.90;;;;;;5055530;28;20475;-89
2022/09/28 00:13:02;;;;;;;6.32;5.25;;;8.90;99.90;;;;;;5055148;28;20034;-88
2022/09/28 00:15:28;;;;;;;6.25;5.10;;;8.90;99.90;;;;;;5056075;28;20634;-88
2022/09/28 00:17:54;;;;;;;6.25;5.13;;;8.90;99.90;;;;;;5054534;28;20428;-87
2022/09/28 00:20:21;;;;;;;7.32;5.57;;;8.80;99.90;;;;;;5054830;28;20048;-91
2022/09/28 00:22:47;;;;;;;5.15;4.28;;;8.80;99.90;;;;;;5056704;28;20032;-89
2022/09/28 00:25:15;;;;;;;6.35;4.82;;;8.80;99.90;;;;;;5071541;28;20025;-90
2022/09/28 00:27:41;;;;;;;6.13;4.75;;;8.70;99.90;;;;;;5055797;28;20108;-89
2022/09/28 00:30:08;;;;;;;7.28;4.70;;;8.70;99.90;;;;;;5054900;28;20021;-88
2022/09/28 00:32:34;;;;;;;7.18;5.05;;;8.70;99.90;;;;;;5054432;28;20148;-89
2022/09/28 00:35:00;;;;;;;6.40;4.82;;;8.60;99.90;;;;;;5055115;28;20021;-89
2022/09/28 00:37:25;;;;;;;6.35;4.95;;;8.50;99.90;;;;;;5055732;28;20096;-90
2022/09/28 00:39:51;;;;;;;6.47;5.15;;;8.50;99.90;;;;;;5056069;28;20021;-89
2022/09/28 00:42:20;;;;;;;5.60;4.65;;;8.40;99.90;;;;;;5054456;28;20025;-87
2022/09/28 00:45:08;;;;;;;7.05;4.90;;;8.40;99.90;;;;;;5054431;28;20370;-89
2022/09/28 00:47:57;;;;;;;6.47;5.25;;;8.40;99.90;;;;;;5054365;28;20482;-87
2022/09/28 00:50:30;;;;;;;6.85;5.22;;;8.40;99.90;;;;;;5057915;28;20021;-89
2022/09/28 00:53:25;;;;;;;6.50;5.35;;;8.40;99.90;;;;;;5054703;28;20029;-89
2022/09/28 00:55:54;;;;;;;6.93;5.07;;;8.30;99.90;;;;;;5054385;28;20013;-90
2022/09/28 00:58:32;;;;;;;7.07;5.55;;;8.30;99.90;;;;;;5060188;28;20152;-89
2022/09/28 01:00:58;;;;;;;7.70;5.20;;;8.40;99.90;;;;;;5062016;28;20018;-88
2022/09/28 01:03:27;;;;;;;5.97;4.47;;;8.40;99.90;;;;;;5057781;28;20034;-87
2022/09/28 01:05:53;;;;;;;6.18;4.65;;;8.40;99.90;;;;;;5062531;28;20025;-87
2022/09/28 01:08:22;;;;;;;6.88;5.70;;;8.50;99.90;;;;;;5063838;28;20025;-87
2022/09/28 01:10:49;;;;;;;8.10;5.65;;;8.50;99.90;;;;;;5089277;28;20028;-87
2022/09/28 01:13:19;;;;;;;6.40;5.10;;;8.50;99.90;;;;;;5061523;28;20036;-88
2022/09/28 01:16:16;;;;;;;7.00;5.65;;;8.50;99.90;;;;;;5069174;28;20029;-86
2022/09/28 01:18:50;;;;;;;7.43;6.00;;;8.50;99.90;;;;;;5057811;28;20021;-88
2022/09/28 01:21:19;;;;;;;8.90;6.00;;;8.40;99.90;;;;;;5056941;28;20024;-88
2022/09/28 01:24:13;;;;;;;6.60;5.32;;;8.40;99.90;;;;;;5060660;28;20017;-87
2022/09/28 01:26:47;;;;;;;7.60;6.05;;;8.40;99.90;;;;;;5061074;28;20056;-87
2022/09/28 01:29:38;;;;;;;6.65;5.57;;;8.30;99.90;;;;;;5067444;28;20067;-88
2022/09/28 01:32:15;;;;;;;6.07;4.95;;;8.30;99.90;;;;;;5052991;28;20055;-87
2022/09/28 01:35:06;;;;;;;7.28;5.43;;;8.20;99.90;;;;;;5041841;28;20028;-87
2022/09/28 01:37:43;;;;;;;6.00;4.90;;;8.10;99.90;;;;;;5067960;28;20096;-89
2022/09/28 01:40:10;;;;;;;6.25;5.20;;;8.00;99.90;;;;;;5053237;28;20031;-87
2022/09/28 01:42:40;;;;;;;5.70;4.90;;;8.00;99.90;;;;;;5052809;28;20028;-88
2022/09/28 01:45:14;;;;;;;7.25;5.50;;;8.00;99.90;;;;;;5053460;28;20017;-88
2022/09/28 01:47:44;;;;;;;6.28;5.40;;;7.90;99.90;;;;;;5052939;28;20017;-87
2022/09/28 01:50:17;;;;;;;6.45;5.18;;;7.90;99.90;;;;;;5052641;28;20107;-88
2022/09/28 01:52:54;;;;;;;6.18;5.05;;;7.90;99.90;;;;;;5053165;28;20094;-88
2022/09/28 01:55:31;;;;;;;6.82;5.10;;;7.80;99.90;;;;;;5053369;28;20028;-89
2022/09/28 01:58:31;;;;;;;6.15;4.50;;;7.80;99.90;;;;;;5068443;28;20047;-87
2022/09/28 02:01:03;;;;;;;5.88;4.60;;;7.80;99.90;;;;;;5053269;28;20093;-90
2022/09/28 02:03:38;;;;;;;6.50;4.95;;;7.70;99.90;;;;;;5052726;28;20024;-89
2022/09/28 02:06:15;;;;;;;7.80;5.10;;;7.80;99.90;;;;;;5053592;28;20044;-89
2022/09/28 02:08:49;;;;;;;7.22;5.30;;;7.80;99.90;;;;;;5040308;28;20051;-88
2022/09/28 02:11:18;;;;;;;8.27;5.47;;;7.90;99.90;;;;;;5052598;28;20075;-88
2022/09/28 02:14:05;;;;;;;7.15;5.55;;;7.90;99.90;;;;;;5053303;28;20068;-88
2022/09/28 02:16:46;;;;;;;7.43;5.00;;;8.00;99.90;;;;;;5053810;28;20043;-88
2022/09/28 02:19:34;;;;;;;5.57;4.53;;;8.00;99.90;;;;;;5059466;28;20437;-88
2022/09/28 02:22:30;;;;;;;6.57;5.18;;;8.10;99.90;;;;;;5055024;28;20055;-90
2022/09/28 02:25:08;;;;;;;5.93;4.97;;;8.10;99.90;;;;;;5071847;28;20044;-87
2022/09/28 02:27:37;;;;;;;6.93;5.53;;;8.10;99.90;;;;;;5069289;28;20025;-86
2022/09/28 02:30:04;;;;;;;7.18;5.18;;;8.20;99.90;;;;;;5070324;28;20029;-86
2022/09/28 02:32:32;;;;;;;6.35;5.03;;;8.20;99.90;;;;;;5069638;28;20041;-87
2022/09/28 02:34:58;;;;;;;8.35;6.00;;;8.20;99.90;;;;;;5070431;28;20047;-87
2022/09/28 02:37:25;;;;;;;7.07;5.45;;;8.20;99.90;;;;;;5075479;28;20025;-88
2022/09/28 02:39:51;;;;;;;6.68;5.07;;;8.20;99.90;;;;;;5077728;28;20001;-84
2022/09/28 02:43:00;;;;;;;6.55;5.15;;;8.20;99.90;;;;;;5078118;28;20035;-87
2022/09/28 02:45:48;;;;;;;6.28;4.78;;;8.20;99.90;;;;;;5077522;28;20025;-88
2022/09/28 02:48:13;;;;;;;6.18;4.78;;;8.30;99.90;;;;;;5076465;28;20041;-88
2022/09/28 02:51:18;;;;;;;5.72;4.95;;;8.30;99.90;;;;;;5077226;28;20044;-88
2022/09/28 02:54:22;;;;;;;6.45;4.40;;;8.30;99.90;;;;;;5067512;28;20028;-89
2022/09/28 02:56:57;;;;;;;7.00;5.28;;;8.40;99.90;;;;;;5065435;28;20020;-87
2022/09/28 03:00:00;;;;;;;6.95;5.40;;;8.30;99.90;;;;;;5085734;28;20013;-89
2022/09/28 03:02:28;;;;;;;6.88;5.35;;;8.40;99.90;;;;;;5054367;28;20102;-89
2022/09/28 03:05:23;;;;;;;6.80;5.50;;;8.40;99.90;;;;;;5053981;28;20044;-89
2022/09/28 03:08:00;;;;;;;9.23;5.53;;;8.40;99.90;;;;;;5045841;28;20083;-87
2022/09/28 03:10:28;;;;;;;5.85;4.93;;;8.40;99.90;;;;;;5054080;28;20116;-88
2022/09/28 03:12:55;;;;;;;6.57;5.15;;;8.40;99.90;;;;;;5054043;28;20044;-88
2022/09/28 03:15:32;;;;;;;6.10;4.75;;;8.40;99.90;;;;;;5054167;28;20031;-89
2022/09/28 03:17:58;;;;;;;6.70;5.07;;;8.50;99.90;;;;;;5053726;28;20110;-88
2022/09/28 03:20:28;;;;;;;6.55;5.20;;;8.50;99.90;;;;;;5055177;28;20029;-88
2022/09/28 03:22:54;;;;;;;6.90;4.93;;;8.50;99.90;;;;;;5053866;28;20021;-90
2022/09/28 03:25:19;;;;;;;5.70;5.00;;;8.50;99.90;;;;;;5053351;28;20108;-90
2022/09/28 03:27:45;;;;;;;6.60;5.20;;;8.50;99.90;;;;;;5054801;28;20067;-90
2022/09/28 03:30:12;;;;;;;7.53;5.28;;;8.50;99.90;;;;;;5056019;28;20020;-89
2022/09/28 03:32:38;;;;;;;8.07;4.70;;;8.50;99.90;;;;;;5056946;28;20406;-89
2022/09/28 03:35:06;;;;;;;6.68;4.97;;;8.50;99.90;;;;;;5057218;28;20021;-89
2022/09/28 03:37:31;;;;;;;6.80;4.82;;;8.60;99.90;;;;;;5057220;28;20509;-90
2022/09/28 03:39:57;;;;;;;6.53;4.82;;;8.60;99.90;;;;;;5058263;28;20017;-89
2022/09/28 03:42:24;;;;;;;6.85;4.72;;;8.60;99.90;;;;;;5063779;28;20029;-87
2022/09/28 03:44:50;;;;;;;6.43;4.85;;;8.60;99.90;;;;;;5059315;28;20108;-90
2022/09/28 03:47:16;;;;;;;9.07;5.78;;;8.60;99.90;;;;;;5059220;28;20036;-87
2022/09/28 03:49:42;;;;;;;7.50;6.50;;;8.60;99.90;;;;;;5062087;28;20020;-89
2022/09/28 03:52:08;;;;;;;7.80;5.82;;;8.60;99.90;;;;;;5055767;28;20043;-88
2022/09/28 03:54:38;;;;;;;6.78;5.55;;;8.60;99.90;;;;;;5056277;28;20440;-89
2022/09/28 03:57:05;;;;;;;6.63;4.82;;;8.60;99.90;;;;;;5055628;28;20463;-89
2022/09/28 03:59:31;;;;;;;7.22;5.50;;;8.60;99.90;;;;;;5055798;28;20032;-90
2022/09/28 04:01:56;;;;;;;7.20;5.50;;;8.60;99.90;;;;;;5055927;28;20029;-90
2022/09/28 04:04:22;;;;;;;6.82;5.15;;;8.60;99.90;;;;;;5055979;28;20025;-90
2022/09/28 04:06:48;;;;;;;6.03;4.57;;;8.60;99.90;;;;;;5055664;28;20029;-89
2022/09/28 04:09:15;;;;;;;5.95;4.15;;;8.60;99.90;;;;;;5055690;28;20065;-88
2022/09/28 04:11:40;;;;;;;5.97;4.25;;;8.60;99.90;;;;;;5043130;28;20021;-89
2022/09/28 04:14:06;;;;;;;5.85;3.55;;;8.60;99.90;;;;;;5055458;28;20035;-88
2022/09/28 04:16:34;;;;;;;5.80;4.40;;;8.60;99.90;;;;;;5055750;28;20020;-89
2022/09/28 04:19:00;;;;;;;5.45;3.78;;;8.60;99.90;;;;;;5055351;28;20025;-89
2022/09/28 04:21:25;;;;;;;5.55;3.67;;;8.60;99.90;;;;;;5055003;28;20014;-88
2022/09/28 04:23:52;;;;;;;4.75;3.50;;;8.50;99.90;;;;;;5055982;28;20382;-89
2022/09/28 04:26:25;;;;;;;4.78;3.72;;;8.60;99.90;;;;;;5071322;28;20036;-87
2022/09/28 04:31:50;;;;;;;4.75;3.55;;;8.50;99.90;;;;;;5055668;28;20158;-89
2022/09/28 04:34:17;;;;;;;3.85;2.88;;;8.40;99.90;;;;;;5055957;28;20056;-90
2022/09/28 04:36:44;;;;;;;4.75;3.35;;;8.30;99.90;;;;;;5054661;28;20025;-89
2022/09/28 04:39:14;;;;;;;4.43;3.13;;;8.20;99.90;;;;;;5054766;28;20067;-89
2022/09/28 04:41:41;;;;;;;4.28;3.15;;;8.20;99.90;;;;;;5057226;28;20048;-89
2022/09/28 04:44:07;;;;;;;5.65;3.28;;;8.10;99.90;;;;;;5061202;28;20071;-93
2022/09/28 04:46:33;;;;;;;4.60;2.72;;;8.00;99.90;;;;;;5041720;28;20025;-90
2022/09/28 04:48:59;;;;;;;4.63;3.20;;;8.00;99.90;;;;;;5052795;28;20025;-89
2022/09/28 04:51:26;;;;;;;3.70;2.63;;;7.90;99.90;;;;;;5053652;28;20024;-91
2022/09/28 04:53:54;;;;;;;4.07;2.75;;;7.80;99.90;;;;;;5054747;28;20024;-90
2022/09/28 04:56:19;;;;;;;4.25;2.90;;;7.70;99.90;;;;;;5038992;28;20130;-90
2022/09/28 04:58:45;;;;;;;4.03;2.60;;;7.70;99.90;;;;;;5068658;28;20494;-90
2022/09/28 05:01:16;;;;;;;4.05;2.58;;;7.60;99.90;;;;;;5039547;28;20022;-90
2022/09/28 05:03:43;;;;;;;3.88;2.40;;;7.60;99.90;;;;;;5057458;28;20025;-91
2022/09/28 05:06:14;;;;;;;3.33;2.20;;;7.60;99.90;;;;;;5053832;28;20039;-90
2022/09/28 05:08:41;;;;;;;3.88;2.72;;;7.50;99.90;;;;;;5054625;28;20096;-91
2022/09/28 05:11:10;;;;;;;3.60;2.58;;;7.50;99.90;;;;;;5054130;28;20013;-88
2022/09/28 05:13:44;;;;;;;4.57;2.92;;;7.40;99.90;;;;;;5053309;28;20033;-90
2022/09/28 05:16:11;;;;;;;3.95;2.55;;;7.40;99.90;;;;;;5053656;28;20029;-89
2022/09/28 05:18:37;;;;;;;3.28;2.33;;;7.40;99.90;;;;;;5053606;28;20021;-89
2022/09/28 05:21:03;;;;;;;3.80;2.80;;;7.30;99.90;;;;;;5053647;28;20031;-90
2022/09/28 05:23:29;;;;;;;3.67;2.63;;;7.30;99.90;;;;;;5058770;28;20024;-92
2022/09/28 05:25:55;;;;;;;4.20;2.88;;;7.30;99.90;;;;;;5068184;28;20029;-91
2022/09/28 05:28:27;;;;;;;4.47;2.65;;;7.20;99.90;;;;;;5073430;28;20025;-90
2022/09/28 05:30:58;;;;;;;3.17;2.42;;;7.20;99.90;;;;;;5059429;28;20036;-93
2022/09/28 05:33:24;;;;;;;3.35;2.50;;;7.20;99.90;;;;;;5053983;28;20048;-91
2022/09/28 05:35:50;;;;;;;4.10;2.67;;;7.10;99.90;;;;;;5061515;28;20051;-90
2022/09/28 05:38:16;;;;;;;3.42;2.35;;;7.10;99.90;;;;;;5068439;28;20025;-89
2022/09/28 05:40:41;;;;;;;3.60;2.30;;;7.10;99.90;;;;;;5049663;28;20021;-87
2022/09/28 05:43:07;;;;;;;3.78;2.58;;;7.10;99.90;;;;;;5052570;28;20025;-86
2022/09/28 05:45:32;;;;;;;3.35;2.35;;;7.10;99.90;;;;;;5052123;28;20032;-87
2022/09/28 05:47:58;;;;;;;4.13;2.90;;;7.00;99.90;;;;;;5052587;28;20027;-86
2022/09/28 05:50:24;;;;;;;4.13;2.60;;;7.00;99.90;;;;;;5053473;28;20075;-87
2022/09/28 05:53:00;;;;;;;3.72;2.80;;;7.00;99.90;;;;;;5052154;28;20119;-88
2022/09/28 05:55:26;;;;;;;3.60;2.55;;;7.00;99.90;;;;;;5051987;28;20025;-87
2022/09/28 05:57:52;;;;;;;3.47;2.65;;;7.00;99.90;;;;;;5052396;28;20028;-87
2022/09/28 06:00:17;;;;;;;4.55;2.40;;;7.00;99.90;;;;;;5052692;28;20147;-86
2022/09/28 06:02:43;;;;;;;3.78;2.45;;;6.90;99.90;;;;;;5054246;28;20123;-87
2022/09/28 06:05:09;;;;;;;3.00;2.20;;;7.00;99.90;;;;;;5052437;28;20052;-88
2022/09/28 06:07:35;;;;;;;3.65;2.20;;;7.00;99.90;;;;;;5053016;28;20031;-87
2022/09/28 06:10:00;;;;;;;3.17;2.30;;;7.00;99.90;;;;;;5053816;28;20092;-86
2022/09/28 06:12:26;;;;;;;2.92;2.00;;;7.10;99.90;;;;;;5052925;28;20120;-87
2022/09/28 06:14:52;;;;;;;3.28;2.45;;;7.10;99.90;;;;;;5065110;28;20066;-87
2022/09/28 06:17:18;;;;;;;2.72;2.20;;;7.10;99.90;;;;;;5055730;28;20025;-87
2022/09/28 06:19:44;;;;;;;3.67;2.25;;;7.10;99.90;;;;;;5052921;28;20035;-87
2022/09/28 06:22:09;;;;;;;3.13;2.08;;;7.10;99.90;;;;;;5054936;28;20120;-87
2022/09/28 06:24:35;;;;;;;3.72;2.10;;;7.10;99.90;;;;;;5069297;28;20033;-87
2022/09/28 06:27:00;;;;;;;3.45;2.05;;;7.10;99.90;;;;;;5054144;28;20040;-86
2022/09/28 06:29:26;;;;;;;1.90;1.48;;;7.20;99.90;;;;;;5055447;28;20497;-86
2022/09/28 06:31:52;;;;;;;3.22;1.90;;;7.20;99.90;;;;;;5058635;28;20131;-86
2022/09/28 06:34:17;;;;;;;3.78;2.50;;;7.20;99.90;;;;;;5057704;28;20033;-88
2022/09/28 06:36:43;;;;;;;3.00;2.03;;;7.20;99.90;;;;;;5065792;28;20021;-88
2022/09/28 06:39:09;;;;;;;2.67;1.90;;;7.30;99.90;;;;;;5068923;28;20024;-88
2022/09/28 06:41:34;;;;;;;2.85;2.10;;;7.30;99.90;;;;;;5052528;28;20025;-87
2022/09/28 06:44:02;;;;;;;3.05;1.85;;;7.30;99.90;;;;;;5047713;28;20448;-87
2022/09/28 06:46:30;;;;;;;3.72;2.40;;;7.30;99.90;;;;;;5059066;28;20017;-87
2022/09/28 06:48:55;;;;;;;2.90;2.17;;;7.40;99.90;;;;;;5056778;28;20013;-87
2022/09/28 06:51:21;;;;;;;4.05;2.50;;;7.50;99.90;;;;;;5054466;28;20025;-88
2022/09/28 06:53:47;;;;;;;2.40;1.92;;;7.50;99.90;;;;;;5053841;28;20037;-88
2022/09/28 06:56:12;;;;;;;4.03;2.40;;;7.50;99.90;;;;;;5053129;28;20078;-88
2022/09/28 06:58:38;;;;;;;3.30;2.40;;;7.60;99.90;;;;;;5058676;28;20021;-87
2022/09/28 07:01:04;;;;;;;4.07;2.67;;;7.60;99.90;;;;;;5054794;28;20573;-87
2022/09/28 07:03:30;;;;;;;4.75;2.20;;;7.70;99.90;;;;;;5052781;28;20029;-87
2022/09/28 07:05:56;;;;;;;3.10;2.13;;;7.80;99.90;;;;;;5055228;28;20521;-87
2022/09/28 07:08:24;;;;;;;2.88;2.42;;;7.80;99.90;;;;;;5071843;28;20099;-88
2022/09/28 07:10:55;;;;;;;3.70;2.70;;;7.90;99.90;;;;;;5055859;28;20102;-88
2022/09/28 07:13:27;;;;;;;3.50;2.55;;;7.90;99.90;;;;;;5055366;28;20389;-87
2022/09/28 07:15:54;;;;;;;4.57;2.28;;;8.00;99.90;;;;;;5050390;28;20041;-87
2022/09/28 07:18:22;;;;;;;4.00;2.40;;;8.10;99.90;;;;;;5055898;28;20025;-89
2022/09/28 07:20:48;;;;;;;2.47;1.83;;;8.10;99.90;;;;;;5055161;28;20035;-89
2022/09/28 07:23:14;;;;;;;2.95;2.20;;;8.10;99.90;;;;;;5055855;28;20521;-88
2022/09/28 07:25:44;;;;;;;2.30;1.90;;;8.20;99.90;;;;;;5055934;28;20021;-85
2022/09/28 07:28:10;;;;;;;3.40;2.30;;;8.30;99.90;;;;;;5055828;28;20021;-88
2022/09/28 07:30:36;;;;;;;2.42;1.83;;;8.40;99.90;;;;;;5060899;28;20187;-88
2022/09/28 07:33:05;;;;;;;4.93;2.10;;;8.40;99.90;;;;;;5057907;28;20049;-89
2022/09/28 07:35:33;;;;;;;3.08;1.85;;;8.50;99.90;;;;;;5054897;28;20427;-88
2022/09/28 07:38:02;;;;;;;2.83;1.83;;;8.60;99.90;;;;;;5055012;28;20017;-89
2022/09/28 07:43:13;;;;;;;2.35;1.73;;;8.70;99.90;;;;;;5056519;28;20040;-88
2022/09/28 07:45:42;;;;;;;3.08;2.00;;;8.80;99.90;;;;;;5055492;28;20012;-90
2022/09/28 07:48:07;;;;;;;2.22;1.70;;;8.90;99.90;;;;;;5071364;28;20074;-88
2022/09/28 07:50:33;;;;;;;3.35;2.45;;;8.90;99.90;;;;;;5056414;28;20017;-87
2022/09/28 07:52:59;;;;;;;2.35;1.63;;;9.00;99.90;;;;;;5054646;28;20051;-87
2022/09/28 07:55:25;;;;;;;2.58;1.85;;;9.10;99.90;;;;;;5054997;28;20016;-89
2022/09/28 07:58:01;;;;;;;3.25;1.60;;;9.10;99.90;;;;;;5055378;28;20029;-88
2022/09/28 08:00:31;;;;;;;3.03;1.92;;;9.20;99.90;;;;;;5045309;28;20429;-87
2022/09/28 08:03:00;;;;;;;3.50;2.28;;;9.40;99.90;;;;;;5067501;28;20025;-89
2022/09/28 08:05:30;;;;;;;2.63;1.60;;;9.40;99.90;;;;;;5055972;28;20029;-87
2022/09/28 08:07:58;;;;;;;2.05;1.30;;;9.50;99.90;;;;;;5049178;28;20020;-87
2022/09/28 08:10:24;;;;;;;3.42;1.42;;;9.60;99.90;;;;;;5064537;28;20116;-89
2022/09/28 08:13:02;;;;;;;1.33;1.10;;;9.60;99.90;;;;;;5060812;28;20095;-92
2022/09/28 08:15:28;;;;;;;2.08;1.20;;;9.70;99.90;;;;;;5059954;28;20021;-89
2022/09/28 08:17:54;;;;;;;2.55;1.30;;;9.70;99.90;;;;;;5061970;28;20072;-90
2022/09/28 08:23:07;;;;;;;1.75;0.90;;;9.90;99.90;;;;;;5061285;28;20059;-92
2022/09/28 08:25:35;;;;;;;2.53;1.50;;;10.00;99.90;;;;;;5043386;28;20020;-89
2022/09/28 08:28:03;;;;;;;1.83;1.17;;;10.10;99.90;;;;;;5059934;28;20032;-92
2022/09/28 08:30:30;;;;;;;4.13;1.65;;;10.20;99.90;;;;;;5057420;28;20017;-88
2022/09/28 08:32:56;;;;;;;2.67;1.40;;;10.30;99.90;;;;;;5059523;28;20127;-90
2022/09/28 08:35:25;;;;;;;3.08;1.17;;;10.40;99.90;;;;;;5040406;28;20029;-90
2022/09/28 08:37:52;;;;;;;1.90;1.08;;;10.50;99.90;;;;;;5061084;28;20069;-90
2022/09/28 08:40:26;;;;;;;1.48;1.05;;;10.60;99.90;;;;;;5067902;28;20470;-89
2022/09/28 08:43:00;;;;;;;1.83;1.00;;;10.70;99.90;;;;;;5058868;28;20017;-88
2022/09/28 08:45:28;;;;;;;1.48;1.00;;;10.90;99.90;;;;;;5056169;28;20025;-90
2022/09/28 08:51:05;;;;;;;2.65;1.30;;;11.20;99.90;;;;;;5065478;28;20485;-89
2022/09/28 08:53:37;;;;;;;1.88;1.27;;;11.30;99.90;;;;;;5060575;28;20490;-89
2022/09/28 08:56:09;;;;;;;2.05;1.30;;;11.40;99.90;;;;;;5062842;28;20013;-88
2022/09/28 08:58:39;;;;;;;3.13;1.40;;;11.40;99.90;;;;;;5056544;28;20017;-87
2022/09/28 09:01:15;;;;;;;2.80;1.90;;;11.40;99.90;;;;;;5060934;28;20040;-88
2022/09/28 09:03:45;;;;;;;2.75;1.70;;;11.40;99.90;;;;;;5067002;28;20071;-91
2022/09/28 09:06:33;;;;;;;2.15;1.40;;;11.40;99.90;;;;;;5061657;28;20083;-90
2022/09/28 09:09:27;;;;;;;2.08;1.45;;;11.40;99.90;;;;;;5066011;28;20035;-87
2022/09/28 09:12:15;;;;;;;2.80;1.35;;;11.60;99.90;;;;;;5052333;28;20029;-91
2022/09/28 09:15:16;;;;;;;1.88;1.05;;;11.70;99.90;;;;;;5052264;28;20040;-90
2022/09/28 09:18:21;;;;;;;1.40;0.93;;;12.00;99.90;;;;;;5062642;28;20040;-88
2022/09/28 09:20:57;;;;;;;2.42;1.40;;;12.00;99.90;;;;;;5059621;28;20031;-89
2022/09/28 09:24:17;;;;;;;1.60;0.90;;;12.70;99.90;;;;;;5056472;28;20494;-88
2022/09/28 09:26:44;;;;;;;1.00;0.50;;;14.50;99.90;;;;;;5026273;28;20040;-89
2022/09/28 09:29:27;;;;;;;1.40;0.65;;;15.30;99.90;;;;;;5027666;28;20029;-89
2022/09/28 09:32:16;;;;;;;1.40;0.85;;;16.00;99.90;;;;;;5061803;28;20080;-90
2022/09/28 09:35:17;;;;;;;1.08;0.50;;;17.40;99.90;;;;;;5079098;28;20025;-90
2022/09/28 09:38:08;;;;;;;1.05;0.40;;;18.70;99.90;;;;;;5043415;28;20070;-89
2022/09/28 09:40:55;;;;;;;1.48;0.40;;;19.00;99.90;;;;;;5056249;28;20132;-90
2022/09/28 09:43:57;;;;;;;0.85;0.40;;;18.10;99.90;;;;;;5080978;28;20061;-92
2022/09/28 09:46:29;;;;;;;0.35;0.20;;;17.50;99.90;;;;;;5064832;28;20051;-92
2022/09/28 09:49:16;;;;;;;0.35;0.20;;;18.60;99.90;;;;;;5057607;28;20029;-95
2022/09/28 09:52:05;;;;;;;0.82;0.40;;;20.10;99.90;;;;;;5075075;28;20025;-91
2022/09/28 09:54:38;;;;;;;2.13;0.52;;;21.10;99.90;;;;;;5061275;28;20029;-93
2022/09/28 09:57:20;;;;;;;;;;;21.80;99.90;;;;;;5064783;28;20048;-93
2022/09/28 09:59:46;;;;;;;0.50;0.30;;;22.00;99.90;;;;;;5070064;28;19923;-87
2022/09/28 10:02:26;;;;;;;0.32;0.25;;;21.80;99.90;;;;;;5061956;28;20032;-89
2022/09/28 10:05:14;;;;;;;0.38;0.30;;;21.80;99.90;;;;;;5065063;28;20039;-90
2022/09/28 10:08:03;;;;;;;1.13;0.55;;;21.00;99.90;;;;;;5045577;28;20035;-87
2022/09/28 10:10:36;;;;;;;0.47;0.20;;;19.60;99.90;;;;;;5062130;28;20031;-92
2022/09/28 10:13:03;;;;;;;0.40;0.20;;;18.40;99.90;;;;;;5062817;28;20068;-90
2022/09/28 10:15:31;;;;;;;0.73;0.30;;;17.60;99.90;;;;;;5051528;28;20024;-93
2022/09/28 10:18:05;;;;;;;0.50;0.20;;;17.10;99.90;;;;;;5058572;28;20029;-89
2022/09/28 10:20:36;;;;;;;0.80;0.30;;;16.70;99.90;;;;;;5069542;28;20096;-92
2022/09/28 10:23:05;;;;;;;0.40;0.20;;;16.50;99.90;;;;;;5051404;28;20021;-92
2022/09/28 10:25:36;;;;;;;0.75;0.30;;;16.60;99.90;;;;;;5042897;28;20024;-87
2022/09/28 10:28:05;;;;;;;0.63;0.30;;;17.00;99.90;;;;;;5073195;28;20500;-92
2022/09/28 10:30:43;;;;;;;0.93;0.30;;;17.70;99.90;;;;;;5054202;28;20026;-88
2022/09/28 10:33:33;;;;;;;0.40;0.20;;;18.10;99.90;;;;;;5060717;28;20076;-90
2022/09/28 10:36:06;;;;;;;0.88;0.20;;;17.80;99.90;;;;;;5059752;28;20025;-87
2022/09/28 10:38:33;;;;;;;0.25;0.17;;;17.30;99.90;;;;;;5067388;28;20036;-88
2022/09/28 10:41:08;;;;;;;1.15;0.20;;;17.00;99.90;;;;;;5052595;28;20052;-91
2022/09/28 10:43:39;;;;;;;1.33;0.25;;;18.30;99.90;;;;;;5075913;28;20024;-91
2022/09/28 10:46:10;;;;;;;0.70;0.20;;;19.60;99.90;;;;;;5054243;28;20034;-90
2022/09/28 10:49:08;;;;;;;0.50;0.22;;;19.40;99.90;;;;;;5067537;28;20028;-93
2022/09/28 10:51:55;;;;;;;0.20;0.20;;;18.70;99.90;;;;;;5066243;28;20028;-90
2022/09/28 10:54:25;;;;;;;0.15;0.10;;;18.10;99.90;;;;;;5073083;28;20398;-90
2022/09/28 10:56:53;;;;;;;0.30;0.20;;;18.70;99.90;;;;;;5058658;28;20028;-91
2022/09/28 10:59:28;;;;;;;0.65;0.20;;;19.50;99.90;;;;;;5056075;28;20021;-88
2022/09/28 11:02:01;;;;;;;0.10;0.10;;;19.10;99.90;;;;;;5055370;28;20025;-89
2022/09/28 11:04:29;;;;;;;1.17;0.40;;;18.40;99.90;;;;;;5058916;28;20025;-91
2022/09/28 11:06:58;;;;;;;0.40;0.20;;;17.80;99.90;;;;;;5066675;28;20024;-91
2022/09/28 11:09:40;;;;;;;0.68;0.30;;;17.40;99.90;;;;;;5058937;28;20546;-92
2022/09/28 11:12:13;;;;;;;0.28;0.15;;;18.70;99.90;;;;;;5057421;28;20032;-90
2022/09/28 11:14:42;;;;;;;;;;;20.40;99.90;;;;;;5060625;28;20031;-92
2022/09/28 11:17:39;;;;;;;0.60;0.20;;;21.70;99.90;;;;;;5079721;28;19912;-93
2022/09/28 11:20:23;;;;;;;0.30;0.30;;;21.40;99.90;;;;;;5058876;28;20100;-90
2022/09/28 11:23:20;;;;;;;0.57;0.20;;;20.40;99.90;;;;;;5056324;28;20021;-92
2022/09/28 11:26:03;;;;;;;0.30;0.20;;;19.60;99.90;;;;;;5061029;28;20029;-89
2022/09/28 11:28:33;;;;;;;0.30;0.10;;;18.80;99.90;;;;;;5061134;28;20021;-91
2022/09/28 11:31:00;;;;;;;0.80;0.30;;;18.30;99.90;;;;;;5058165;28;20033;-91
2022/09/28 11:33:33;;;;;;;0.30;0.20;;;17.80;99.90;;;;;;5055495;28;20053;-88
2022/09/28 11:36:15;;;;;;;1.35;0.10;;;17.60;99.90;;;;;;5054571;28;20021;-91
2022/09/28 11:39:00;;;;;;;0.95;0.22;;;18.50;99.90;;;;;;5063711;28;20028;-89
2022/09/28 11:41:41;;;;;;;1.95;0.40;;;20.30;99.90;;;;;;5069241;28;20055;-88
2022/09/28 11:44:32;;;;;;;1.77;0.30;;;21.90;99.90;;;;;;5068972;28;20048;-88
2022/09/28 11:47:19;;;;;;;0.70;0.20;;;23.10;99.90;;;;;;5059283;28;20017;-86
2022/09/28 11:50:06;;;;;;;0.45;0.20;;;24.40;99.90;;;;;;5068240;28;20474;-90
2022/09/28 11:52:35;;;;;;;0.80;0.20;;;24.90;99.90;;;;;;5030341;23;20061;-79
2022/09/28 11:55:28;;;;;;;0.15;0.10;;;25.10;99.90;;;;;;4985523;28;20045;-80
2022/09/28 11:58:30;;;;;;;0.85;0.50;;;25.50;99.90;;;;;;5007867;28;20019;-80
2022/09/28 12:01:26;;;;;;;1.10;0.20;;;25.70;99.90;;;;;;4973449;28;20045;-81
2022/09/28 12:04:16;;;;;;;0.95;0.20;;;25.40;99.90;;;;;;4965192;28;20043;-81
2022/09/28 12:06:52;;;;;;;0.22;0.20;;;24.50;99.90;;;;;;4967827;28;20027;-81
2022/09/28 12:10:01;;;;;;;0.30;0.10;;;23.90;99.90;;;;;;4970765;28;20027;-80
2022/09/28 12:12:42;;;;;;;0.73;0.20;;;24.70;99.90;;;;;;4957323;28;20046;-83
2022/09/28 12:15:24;;;;;;;0.68;0.20;;;25.20;99.90;;;;;;4961139;28;20085;-83
2022/09/28 12:18:14;;;;;;;0.82;0.20;;;25.60;99.90;;;;;;4963529;28;20019;-81
2022/09/28 12:20:53;;;;;;;0.32;0.10;;;25.20;99.90;;;;;;4972853;28;20027;-81
2022/09/28 12:23:33;;;;;;;2.40;0.20;;;24.10;99.90;;;;;;4968018;28;20474;-81
2022/09/28 12:26:29;;;;;;;0.52;0.13;;;23.10;99.90;;;;;;4975652;28;20019;-81
2022/09/28 12:28:59;;;;;;;0.10;0.10;;;22.00;99.90;;;;;;4966362;28;20130;-80
2022/09/28 12:32:00;;;;;;;0.32;0.20;;;21.00;99.90;;;;;;4974956;28;20018;-82
2022/09/28 12:34:27;;;;;;;1.65;0.32;;;20.40;99.90;;;;;;4985479;28;20039;-80
2022/09/28 12:37:34;;;;;;;0.88;0.20;;;20.00;99.90;;;;;;4971753;28;20023;-82
2022/09/28 12:40:12;;;;;;;1.08;0.22;;;21.40;99.90;;;;;;4968024;28;20110;-84
2022/09/28 12:43:39;;;;;;;0.68;0.10;;;23.40;99.90;;;;;;4975961;28;20074;-84
2022/09/28 12:46:24;;;;;;;0.10;0.10;;;24.80;99.90;;;;;;4939254;29;20151;-84
2022/09/28 12:52:18;;;;;;;0.37;0.20;;;25.60;99.90;;;;;;4971254;28;20074;-83
2022/09/28 12:55:14;;;;;;;0.10;0.10;;;25.50;99.90;;;;;;4965776;28;20026;-84
2022/09/28 12:57:57;;;;;;;0.10;0.10;;;24.90;99.90;;;;;;4962442;28;20082;-83
2022/09/28 13:00:49;;;;;;;0.73;0.20;;;25.00;99.90;;;;;;4970770;28;20034;-84
2022/09/28 13:03:30;;;;;;;0.13;0.10;;;25.80;99.90;;;;;;4966485;28;20035;-87
2022/09/28 13:06:25;;;;;;;0.10;0.10;;;26.90;99.90;;;;;;4977242;28;20076;-85
2022/09/28 13:09:14;;;;;;;1.75;0.10;;;26.90;99.90;;;;;;4961740;28;20027;-85
2022/09/28 13:11:58;;;;;;;0.30;0.10;;;26.80;99.90;;;;;;4959926;28;20361;-84
2022/09/28 13:14:26;;;;;;;0.43;0.10;;;25.80;99.90;;;;;;4974575;28;20046;-84
2022/09/28 13:17:30;;;;;;;;;;;;;;;;;;;;;
2022/09/28 13:20:26;;;;;;;0.38;0.10;;;23.60;99.90;;;;;;4969998;28;20049;-84
2022/09/28 13:23:40;;;;;;;0.65;0.20;;;22.50;99.90;;;;;;4951808;28;20035;-83
2022/09/28 13:26:13;;;;;;;0.57;0.20;;;21.70;99.90;;;;;;4970721;28;20058;-84
2022/09/28 13:28:58;;;;;;;;;;;20.70;99.90;;;;;;4976784;28;20038;-84
2022/09/28 13:31:31;;;;;;;0.10;0.10;;;20.00;99.90;;;;;;4965433;28;19910;-82
2022/09/28 13:34:02;;;;;;;0.10;0.10;;;19.40;99.90;;;;;;4966739;28;20449;-82
2022/09/28 13:36:44;;;;;;;0.30;0.20;;;19.10;99.90;;;;;;4964353;28;20035;-85
2022/09/28 13:39:50;;;;;;;1.02;0.40;;;18.60;99.90;;;;;;4965344;28;20058;-82
2022/09/28 13:42:50;;;;;;;0.10;0.10;;;18.20;99.90;;;;;;4971518;28;20035;-82
2022/09/28 13:45:49;;;;;;;0.25;0.20;;;17.70;99.90;;;;;;4980760;28;20495;-82
2022/09/28 13:48:41;;;;;;;2.47;0.20;;;17.30;99.90;;;;;;4984271;28;20484;-83